sensor_id;sensor_type;location;lat;lon;timestamp;temperature;humidity
74661;SHT31;63191;39.566;2.654;2022-11-25T00:01:22;16.61;77.21
74661;SHT31;63191;39.566;2.654;2022-11-25T00:03:50;16.59;77.33
74661;SHT31;63191;39.566;2.654;2022-11-25T00:06:20;16.59;77.56
74661;SHT31;63191;39.566;2.654;2022-11-25T00:09:02;16.58;77.75
74661;SHT31;63191;39.566;2.654;2022-11-25T00:11:35;16.56;77.98
74661;SHT31;63191;39.566;2.654;2022-11-25T00:14:04;16.56;78.09
74661;SHT31;63191;39.566;2.654;2022-11-25T00:16:31;16.54;78.17
74661;SHT31;63191;39.566;2.654;2022-11-25T00:18:57;16.54;78.35
74661;SHT31;63191;39.566;2.654;2022-11-25T00:21:24;16.57;78.52
74661;SHT31;63191;39.566;2.654;2022-11-25T00:23:57;16.59;78.62
74661;SHT31;63191;39.566;2.654;2022-11-25T00:26:28;16.62;78.61
74661;SHT31;63191;39.566;2.654;2022-11-25T00:28:59;16.65;78.60
74661;SHT31;63191;39.566;2.654;2022-11-25T00:31:30;16.66;78.53
74661;SHT31;63191;39.566;2.654;2022-11-25T00:33:59;16.66;78.42
74661;SHT31;63191;39.566;2.654;2022-11-25T00:36:26;16.64;78.43
74661;SHT31;63191;39.566;2.654;2022-11-25T00:38:57;16.64;78.42
74661;SHT31;63191;39.566;2.654;2022-11-25T00:41:29;16.64;78.29
74661;SHT31;63191;39.566;2.654;2022-11-25T00:44:15;16.65;78.05
74661;SHT31;63191;39.566;2.654;2022-11-25T00:47:09;16.66;77.77
74661;SHT31;63191;39.566;2.654;2022-11-25T00:49:44;16.65;77.67
74661;SHT31;63191;39.566;2.654;2022-11-25T00:52:23;16.63;77.60
74661;SHT31;63191;39.566;2.654;2022-11-25T00:54:51;16.63;77.60
74661;SHT31;63191;39.566;2.654;2022-11-25T00:57:19;16.61;77.59
74661;SHT31;63191;39.566;2.654;2022-11-25T00:59:47;16.58;77.59
74661;SHT31;63191;39.566;2.654;2022-11-25T01:02:15;16.55;77.63
74661;SHT31;63191;39.566;2.654;2022-11-25T01:04:43;16.52;77.70
74661;SHT31;63191;39.566;2.654;2022-11-25T01:07:09;16.50;77.73
74661;SHT31;63191;39.566;2.654;2022-11-25T01:09:35;16.50;77.80
74661;SHT31;63191;39.566;2.654;2022-11-25T01:12:01;16.49;77.89
74661;SHT31;63191;39.566;2.654;2022-11-25T01:14:28;16.47;77.97
74661;SHT31;63191;39.566;2.654;2022-11-25T01:16:54;16.46;78.04
74661;SHT31;63191;39.566;2.654;2022-11-25T01:19:19;16.44;78.11
74661;SHT31;63191;39.566;2.654;2022-11-25T01:21:45;16.44;78.21
74661;SHT31;63191;39.566;2.654;2022-11-25T01:24:12;16.44;78.36
74661;SHT31;63191;39.566;2.654;2022-11-25T01:26:39;16.47;78.46
74661;SHT31;63191;39.566;2.654;2022-11-25T01:29:09;16.51;78.50
74661;SHT31;63191;39.566;2.654;2022-11-25T01:31:39;16.57;78.50
74661;SHT31;63191;39.566;2.654;2022-11-25T01:34:07;16.60;78.51
74661;SHT31;63191;39.566;2.654;2022-11-25T01:36:41;16.63;78.52
74661;SHT31;63191;39.566;2.654;2022-11-25T01:39:10;16.64;78.60
74661;SHT31;63191;39.566;2.654;2022-11-25T01:41:42;16.64;78.60
74661;SHT31;63191;39.566;2.654;2022-11-25T01:44:09;16.63;78.62
74661;SHT31;63191;39.566;2.654;2022-11-25T01:49:41;16.62;78.65
74661;SHT31;63191;39.566;2.654;2022-11-25T01:52:20;16.64;78.76
74661;SHT31;63191;39.566;2.654;2022-11-25T01:54:59;16.66;78.88
74661;SHT31;63191;39.566;2.654;2022-11-25T01:57:42;16.67;78.95
74661;SHT31;63191;39.566;2.654;2022-11-25T02:00:16;16.64;79.00
74661;SHT31;63191;39.566;2.654;2022-11-25T02:02:43;16.61;79.08
74661;SHT31;63191;39.566;2.654;2022-11-25T02:05:11;16.58;79.15
74661;SHT31;63191;39.566;2.654;2022-11-25T02:08:00;16.56;79.26
74661;SHT31;63191;39.566;2.654;2022-11-25T02:10:27;16.57;79.37
74661;SHT31;63191;39.566;2.654;2022-11-25T02:12:56;16.58;79.40
74661;SHT31;63191;39.566;2.654;2022-11-25T02:15:23;16.62;79.40
74661;SHT31;63191;39.566;2.654;2022-11-25T02:17:48;16.64;79.43
74661;SHT31;63191;39.566;2.654;2022-11-25T02:20:16;16.65;79.51
74661;SHT31;63191;39.566;2.654;2022-11-25T02:25:36;16.65;79.70
74661;SHT31;63191;39.566;2.654;2022-11-25T02:28:14;16.61;79.76
74661;SHT31;63191;39.566;2.654;2022-11-25T02:30:45;16.60;79.70
74661;SHT31;63191;39.566;2.654;2022-11-25T02:33:11;16.57;79.70
74661;SHT31;63191;39.566;2.654;2022-11-25T02:35:39;16.53;79.80
74661;SHT31;63191;39.566;2.654;2022-11-25T02:43:49;16.38;80.12
74661;SHT31;63191;39.566;2.654;2022-11-25T02:46:16;16.32;80.24
74661;SHT31;63191;39.566;2.654;2022-11-25T02:48:45;16.27;80.35
74661;SHT31;63191;39.566;2.654;2022-11-25T02:51:12;16.23;80.46
74661;SHT31;63191;39.566;2.654;2022-11-25T02:53:42;16.22;80.59
74661;SHT31;63191;39.566;2.654;2022-11-25T02:56:08;16.19;80.69
74661;SHT31;63191;39.566;2.654;2022-11-25T02:58:35;16.16;80.77
74661;SHT31;63191;39.566;2.654;2022-11-25T03:01:01;16.12;80.89
74661;SHT31;63191;39.566;2.654;2022-11-25T03:03:26;16.08;81.03
74661;SHT31;63191;39.566;2.654;2022-11-25T03:05:52;16.04;81.17
74661;SHT31;63191;39.566;2.654;2022-11-25T03:08:18;15.99;81.28
74661;SHT31;63191;39.566;2.654;2022-11-25T03:10:44;15.97;81.40
74661;SHT31;63191;39.566;2.654;2022-11-25T03:13:09;15.95;81.49
74661;SHT31;63191;39.566;2.654;2022-11-25T03:15:36;15.94;81.61
74661;SHT31;63191;39.566;2.654;2022-11-25T03:18:02;15.93;81.72
74661;SHT31;63191;39.566;2.654;2022-11-25T03:20:30;15.91;81.87
74661;SHT31;63191;39.566;2.654;2022-11-25T03:22:56;15.90;82.06
74661;SHT31;63191;39.566;2.654;2022-11-25T03:25:22;15.88;82.21
74661;SHT31;63191;39.566;2.654;2022-11-25T03:27:48;15.86;82.34
74661;SHT31;63191;39.566;2.654;2022-11-25T03:30:14;15.85;82.41
74661;SHT31;63191;39.566;2.654;2022-11-25T03:32:44;15.84;82.45
74661;SHT31;63191;39.566;2.654;2022-11-25T03:35:11;15.83;82.46
74661;SHT31;63191;39.566;2.654;2022-11-25T03:37:37;15.82;82.56
74661;SHT31;63191;39.566;2.654;2022-11-25T03:40:04;15.79;82.60
74661;SHT31;63191;39.566;2.654;2022-11-25T03:42:33;15.76;82.60
74661;SHT31;63191;39.566;2.654;2022-11-25T03:44:59;15.70;82.67
74661;SHT31;63191;39.566;2.654;2022-11-25T03:47:25;15.67;82.76
74661;SHT31;63191;39.566;2.654;2022-11-25T03:49:51;15.66;82.76
74661;SHT31;63191;39.566;2.654;2022-11-25T03:52:16;15.64;82.70
74661;SHT31;63191;39.566;2.654;2022-11-25T03:54:42;15.62;82.70
74661;SHT31;63191;39.566;2.654;2022-11-25T03:57:08;15.61;82.75
74661;SHT31;63191;39.566;2.654;2022-11-25T03:59:34;15.59;82.80
74661;SHT31;63191;39.566;2.654;2022-11-25T04:02:00;15.56;82.88
74661;SHT31;63191;39.566;2.654;2022-11-25T04:04:25;15.55;82.94
74661;SHT31;63191;39.566;2.654;2022-11-25T04:06:52;15.52;83.07
74661;SHT31;63191;39.566;2.654;2022-11-25T04:09:18;15.51;83.10
74661;SHT31;63191;39.566;2.654;2022-11-25T04:11:44;15.50;83.10
74661;SHT31;63191;39.566;2.654;2022-11-25T04:14:29;15.52;83.10
74661;SHT31;63191;39.566;2.654;2022-11-25T04:16:55;15.54;83.18
74661;SHT31;63191;39.566;2.654;2022-11-25T04:19:21;15.56;83.33
74661;SHT31;63191;39.566;2.654;2022-11-25T04:21:47;15.57;83.40
74661;SHT31;63191;39.566;2.654;2022-11-25T04:24:13;15.57;83.46
74661;SHT31;63191;39.566;2.654;2022-11-25T04:26:39;15.57;83.48
74661;SHT31;63191;39.566;2.654;2022-11-25T04:29:05;15.56;83.54
74661;SHT31;63191;39.566;2.654;2022-11-25T04:31:31;15.56;83.62
74661;SHT31;63191;39.566;2.654;2022-11-25T04:33:57;15.57;83.69
74661;SHT31;63191;39.566;2.654;2022-11-25T04:36:23;15.59;83.78
74661;SHT31;63191;39.566;2.654;2022-11-25T04:38:49;15.61;83.94
74661;SHT31;63191;39.566;2.654;2022-11-25T04:41:15;15.62;84.11
74661;SHT31;63191;39.566;2.654;2022-11-25T04:43:40;15.63;84.20
74661;SHT31;63191;39.566;2.654;2022-11-25T04:46:06;15.64;84.29
74661;SHT31;63191;39.566;2.654;2022-11-25T04:48:33;15.66;84.36
74661;SHT31;63191;39.566;2.654;2022-11-25T04:50:59;15.69;84.52
74661;SHT31;63191;39.566;2.654;2022-11-25T04:53:25;15.72;84.69
74661;SHT31;63191;39.566;2.654;2022-11-25T04:55:50;15.76;84.97
74661;SHT31;63191;39.566;2.654;2022-11-25T04:58:16;15.79;85.28
74661;SHT31;63191;39.566;2.654;2022-11-25T05:01:01;15.83;85.55
74661;SHT31;63191;39.566;2.654;2022-11-25T05:03:27;15.89;85.72
74661;SHT31;63191;39.566;2.654;2022-11-25T05:05:54;15.94;85.84
74661;SHT31;63191;39.566;2.654;2022-11-25T05:08:20;16.00;85.96
74661;SHT31;63191;39.566;2.654;2022-11-25T05:10:45;16.04;86.12
74661;SHT31;63191;39.566;2.654;2022-11-25T05:13:11;16.08;86.24
74661;SHT31;63191;39.566;2.654;2022-11-25T05:15:37;16.13;86.39
74661;SHT31;63191;39.566;2.654;2022-11-25T05:18:02;16.17;86.49
74661;SHT31;63191;39.566;2.654;2022-11-25T05:20:28;16.22;86.62
74661;SHT31;63191;39.566;2.654;2022-11-25T05:22:54;16.27;86.77
74661;SHT31;63191;39.566;2.654;2022-11-25T05:25:19;16.34;87.07
74661;SHT31;63191;39.566;2.654;2022-11-25T05:27:45;16.41;87.20
74661;SHT31;63191;39.566;2.654;2022-11-25T05:30:11;16.49;87.30
74661;SHT31;63191;39.566;2.654;2022-11-25T05:32:37;16.58;87.56
74661;SHT31;63191;39.566;2.654;2022-11-25T05:35:04;16.65;87.70
74661;SHT31;63191;39.566;2.654;2022-11-25T05:37:31;16.70;87.67
74661;SHT31;63191;39.566;2.654;2022-11-25T05:39:57;16.74;87.55
74661;SHT31;63191;39.566;2.654;2022-11-25T05:42:23;16.75;87.43
74661;SHT31;63191;39.566;2.654;2022-11-25T05:44:49;16.76;87.32
74661;SHT31;63191;39.566;2.654;2022-11-25T05:47:15;16.75;87.30
74661;SHT31;63191;39.566;2.654;2022-11-25T05:49:40;16.73;87.24
74661;SHT31;63191;39.566;2.654;2022-11-25T05:52:06;16.74;87.21
74661;SHT31;63191;39.566;2.654;2022-11-25T05:54:32;16.75;87.31
74661;SHT31;63191;39.566;2.654;2022-11-25T05:56:57;16.81;87.40
74661;SHT31;63191;39.566;2.654;2022-11-25T05:59:23;16.85;87.43
74661;SHT31;63191;39.566;2.654;2022-11-25T06:01:51;16.89;87.50
74661;SHT31;63191;39.566;2.654;2022-11-25T06:04:17;16.93;87.58
74661;SHT31;63191;39.566;2.654;2022-11-25T06:06:43;17.00;87.65
74661;SHT31;63191;39.566;2.654;2022-11-25T06:09:09;17.09;87.65
74661;SHT31;63191;39.566;2.654;2022-11-25T06:11:35;17.15;87.61
74661;SHT31;63191;39.566;2.654;2022-11-25T06:14:01;17.22;87.60
74661;SHT31;63191;39.566;2.654;2022-11-25T06:16:27;17.29;87.65
74661;SHT31;63191;39.566;2.654;2022-11-25T06:18:53;17.36;87.62
74661;SHT31;63191;39.566;2.654;2022-11-25T06:21:19;17.42;87.60
74661;SHT31;63191;39.566;2.654;2022-11-25T06:23:45;17.48;87.48
74661;SHT31;63191;39.566;2.654;2022-11-25T06:26:12;17.55;87.39
74661;SHT31;63191;39.566;2.654;2022-11-25T06:28:39;17.61;87.28
74661;SHT31;63191;39.566;2.654;2022-11-25T06:31:06;17.66;87.21
74661;SHT31;63191;39.566;2.654;2022-11-25T06:33:40;17.70;87.18
74661;SHT31;63191;39.566;2.654;2022-11-25T06:36:07;17.73;87.10
74661;SHT31;63191;39.566;2.654;2022-11-25T06:38:41;17.78;87.02
74661;SHT31;63191;39.566;2.654;2022-11-25T06:41:12;17.83;86.96
74661;SHT31;63191;39.566;2.654;2022-11-25T06:43:39;17.89;86.83
74661;SHT31;63191;39.566;2.654;2022-11-25T06:46:06;17.95;86.75
74661;SHT31;63191;39.566;2.654;2022-11-25T06:48:34;18.00;86.65
74661;SHT31;63191;39.566;2.654;2022-11-25T06:51:02;18.04;86.56
74661;SHT31;63191;39.566;2.654;2022-11-25T06:53:35;18.06;86.47
74661;SHT31;63191;39.566;2.654;2022-11-25T06:56:21;18.11;86.29
74661;SHT31;63191;39.566;2.654;2022-11-25T06:58:49;18.15;86.12
74661;SHT31;63191;39.566;2.654;2022-11-25T07:01:18;18.18;85.99
74661;SHT31;63191;39.566;2.654;2022-11-25T07:03:48;18.20;85.92
74661;SHT31;63191;39.566;2.654;2022-11-25T07:06:17;18.21;85.96
74661;SHT31;63191;39.566;2.654;2022-11-25T07:08:44;18.22;85.90
74661;SHT31;63191;39.566;2.654;2022-11-25T07:11:15;18.24;85.90
74661;SHT31;63191;39.566;2.654;2022-11-25T07:13:44;18.30;85.96
74661;SHT31;63191;39.566;2.654;2022-11-25T07:16:10;18.41;85.87
74661;SHT31;63191;39.566;2.654;2022-11-25T07:18:37;18.46;85.42
74661;SHT31;63191;39.566;2.654;2022-11-25T07:21:04;18.50;84.84
74661;SHT31;63191;39.566;2.654;2022-11-25T07:23:42;18.55;84.35
74661;SHT31;63191;39.566;2.654;2022-11-25T07:26:11;18.62;84.01
74661;SHT31;63191;39.566;2.654;2022-11-25T07:28:40;18.74;83.71
74661;SHT31;63191;39.566;2.654;2022-11-25T07:31:14;18.96;83.34
74661;SHT31;63191;39.566;2.654;2022-11-25T07:33:44;19.10;83.02
74661;SHT31;63191;39.566;2.654;2022-11-25T07:36:11;19.39;82.54
74661;SHT31;63191;39.566;2.654;2022-11-25T07:38:39;19.74;81.95
74661;SHT31;63191;39.566;2.654;2022-11-25T07:41:09;20.27;81.19
74661;SHT31;63191;39.566;2.654;2022-11-25T07:43:39;20.95;80.26
74661;SHT31;63191;39.566;2.654;2022-11-25T07:46:09;21.32;79.23
74661;SHT31;63191;39.566;2.654;2022-11-25T07:48:50;21.80;77.97
74661;SHT31;63191;39.566;2.654;2022-11-25T07:51:21;22.42;76.72
74661;SHT31;63191;39.566;2.654;2022-11-25T07:53:49;22.81;75.38
74661;SHT31;63191;39.566;2.654;2022-11-25T07:56:17;22.81;73.95
74661;SHT31;63191;39.566;2.654;2022-11-25T07:58:43;23.11;72.98
74661;SHT31;63191;39.566;2.654;2022-11-25T08:01:10;23.74;72.03
74661;SHT31;63191;39.566;2.654;2022-11-25T08:03:38;24.48;70.89
74661;SHT31;63191;39.566;2.654;2022-11-25T08:06:07;25.31;69.25
74661;SHT31;63191;39.566;2.654;2022-11-25T08:08:39;26.15;67.14
74661;SHT31;63191;39.566;2.654;2022-11-25T08:11:07;26.67;65.08
74661;SHT31;63191;39.566;2.654;2022-11-25T08:13:36;26.81;63.32
74661;SHT31;63191;39.566;2.654;2022-11-25T08:16:02;26.67;61.53
74661;SHT31;63191;39.566;2.654;2022-11-25T08:18:28;26.50;59.71
74661;SHT31;63191;39.566;2.654;2022-11-25T08:21:00;26.28;58.71
74661;SHT31;63191;39.566;2.654;2022-11-25T08:23:29;26.21;59.59
74661;SHT31;63191;39.566;2.654;2022-11-25T08:25:57;26.57;59.63
74661;SHT31;63191;39.566;2.654;2022-11-25T08:28:34;27.25;58.85
74661;SHT31;63191;39.566;2.654;2022-11-25T08:31:05;27.80;57.84
74661;SHT31;63191;39.566;2.654;2022-11-25T08:33:57;27.79;56.92
74661;SHT31;63191;39.566;2.654;2022-11-25T08:36:23;27.70;56.26
74661;SHT31;63191;39.566;2.654;2022-11-25T08:38:52;27.66;55.83
74661;SHT31;63191;39.566;2.654;2022-11-25T08:41:29;27.66;55.77
74661;SHT31;63191;39.566;2.654;2022-11-25T08:43:58;27.72;55.56
74661;SHT31;63191;39.566;2.654;2022-11-25T08:46:28;27.99;55.53
74661;SHT31;63191;39.566;2.654;2022-11-25T08:48:58;29.01;55.27
74661;SHT31;63191;39.566;2.654;2022-11-25T08:51:26;30.12;52.40
74661;SHT31;63191;39.566;2.654;2022-11-25T08:53:55;30.96;50.44
74661;SHT31;63191;39.566;2.654;2022-11-25T08:56:22;31.47;49.28
74661;SHT31;63191;39.566;2.654;2022-11-25T08:58:50;31.59;48.23
74661;SHT31;63191;39.566;2.654;2022-11-25T09:01:16;31.53;48.37
74661;SHT31;63191;39.566;2.654;2022-11-25T09:03:44;31.31;47.67
74661;SHT31;63191;39.566;2.654;2022-11-25T09:06:13;31.52;47.57
74661;SHT31;63191;39.566;2.654;2022-11-25T09:08:40;31.49;47.08
74661;SHT31;63191;39.566;2.654;2022-11-25T09:11:08;31.31;47.07
74661;SHT31;63191;39.566;2.654;2022-11-25T09:13:35;32.15;47.25
74661;SHT31;63191;39.566;2.654;2022-11-25T09:16:01;32.89;46.18
74661;SHT31;63191;39.566;2.654;2022-11-25T09:18:28;34.09;44.44
74661;SHT31;63191;39.566;2.654;2022-11-25T09:20:57;35.33;43.06
74661;SHT31;63191;39.566;2.654;2022-11-25T09:23:24;36.60;41.01
74661;SHT31;63191;39.566;2.654;2022-11-25T09:25:59;36.84;38.84
74661;SHT31;63191;39.566;2.654;2022-11-25T09:28:25;37.20;37.99
74661;SHT31;63191;39.566;2.654;2022-11-25T09:30:51;37.67;36.89
74661;SHT31;63191;39.566;2.654;2022-11-25T09:33:17;37.97;36.56
74661;SHT31;63191;39.566;2.654;2022-11-25T09:35:44;38.60;35.53
74661;SHT31;63191;39.566;2.654;2022-11-25T09:38:11;39.10;34.41
74661;SHT31;63191;39.566;2.654;2022-11-25T09:46:36;37.38;34.09
74661;SHT31;63191;39.566;2.654;2022-11-25T09:51:48;38.23;34.02
74661;SHT31;63191;39.566;2.654;2022-11-25T09:54:24;38.37;32.83
74661;SHT31;63191;39.566;2.654;2022-11-25T09:57:14;38.37;33.29
74661;SHT31;63191;39.566;2.654;2022-11-25T10:02:25;39.40;32.72
74661;SHT31;63191;39.566;2.654;2022-11-25T10:05:13;38.86;32.26
74661;SHT31;63191;39.566;2.654;2022-11-25T10:07:46;37.31;32.04
74661;SHT31;63191;39.566;2.654;2022-11-25T10:10:43;35.36;33.43
74661;SHT31;63191;39.566;2.654;2022-11-25T10:13:41;33.52;35.51
74661;SHT31;63191;39.566;2.654;2022-11-25T10:19:10;30.74;40.51
74661;SHT31;63191;39.566;2.654;2022-11-25T10:21:46;30.31;41.59
74661;SHT31;63191;39.566;2.654;2022-11-25T10:24:12;29.69;42.40
74661;SHT31;63191;39.566;2.654;2022-11-25T10:26:41;28.96;43.68
74661;SHT31;63191;39.566;2.654;2022-11-25T10:31:39;28.14;45.67
74661;SHT31;63191;39.566;2.654;2022-11-25T10:37:10;29.44;45.26
74661;SHT31;63191;39.566;2.654;2022-11-25T10:39:53;29.82;42.98
74661;SHT31;63191;39.566;2.654;2022-11-25T10:42:20;29.37;42.50
74661;SHT31;63191;39.566;2.654;2022-11-25T10:44:49;28.66;43.34
74661;SHT31;63191;39.566;2.654;2022-11-25T10:55:33;25.17;49.31
74661;SHT31;63191;39.566;2.654;2022-11-25T10:58:01;24.56;50.58
74661;SHT31;63191;39.566;2.654;2022-11-25T11:03:53;23.59;52.91
74661;SHT31;63191;39.566;2.654;2022-11-25T11:06:36;23.28;53.77
74661;SHT31;63191;39.566;2.654;2022-11-25T11:12:21;22.93;55.10
74661;SHT31;63191;39.566;2.654;2022-11-25T11:14:52;22.84;55.41
74661;SHT31;63191;39.566;2.654;2022-11-25T11:17:39;22.74;55.68
74661;SHT31;63191;39.566;2.654;2022-11-25T11:22:31;22.81;55.72
74661;SHT31;63191;39.566;2.654;2022-11-25T11:27:53;23.02;55.35
74661;SHT31;63191;39.566;2.654;2022-11-25T11:30:21;23.02;55.41
74661;SHT31;63191;39.566;2.654;2022-11-25T11:32:55;22.99;55.52
74661;SHT31;63191;39.566;2.654;2022-11-25T11:49:04;24.63;51.96
74661;SHT31;63191;39.566;2.654;2022-11-25T11:51:49;24.60;51.55
74661;SHT31;63191;39.566;2.654;2022-11-25T11:59:51;24.31;52.10
74661;SHT31;63191;39.566;2.654;2022-11-25T12:05:18;24.81;51.05
74661;SHT31;63191;39.566;2.654;2022-11-25T12:07:56;25.20;50.80
74661;SHT31;63191;39.566;2.654;2022-11-25T12:10:38;25.78;49.84
74661;SHT31;63191;39.566;2.654;2022-11-25T12:16:07;25.93;48.05
74661;SHT31;63191;39.566;2.654;2022-11-25T12:22:05;26.73;47.07
74661;SHT31;63191;39.566;2.654;2022-11-25T12:24:48;27.79;45.35
74661;SHT31;63191;39.566;2.654;2022-11-25T12:30:11;29.70;41.18
74661;SHT31;63191;39.566;2.654;2022-11-25T12:32:43;31.88;39.15
74661;SHT31;63191;39.566;2.654;2022-11-25T12:41:23;35.94;31.40
74661;SHT31;63191;39.566;2.654;2022-11-25T12:46:48;32.57;32.26
74661;SHT31;63191;39.566;2.654;2022-11-25T12:49:18;31.10;34.16
74661;SHT31;63191;39.566;2.654;2022-11-25T13:12:27;24.37;45.24
74661;SHT31;63191;39.566;2.654;2022-11-25T13:18:11;24.26;45.56
74661;SHT31;63191;39.566;2.654;2022-11-25T13:20:44;25.34;44.54
74661;SHT31;63191;39.566;2.654;2022-11-25T13:25:42;26.75;40.35
74661;SHT31;63191;39.566;2.654;2022-11-25T13:28:26;26.97;38.15
74661;SHT31;63191;39.566;2.654;2022-11-25T13:30:54;26.32;36.79
74661;SHT31;63191;39.566;2.654;2022-11-25T13:36:18;24.98;37.41
74661;SHT31;63191;39.566;2.654;2022-11-25T13:43:54;23.31;40.13
74661;SHT31;63191;39.566;2.654;2022-11-25T13:52:27;22.48;43.12
74661;SHT31;63191;39.566;2.654;2022-11-25T13:54:59;22.32;44.46
74661;SHT31;63191;39.566;2.654;2022-11-25T13:57:45;22.55;44.89
74661;SHT31;63191;39.566;2.654;2022-11-25T14:02:43;23.57;44.90
74661;SHT31;63191;39.566;2.654;2022-11-25T14:17:14;27.88;38.60
74661;SHT31;63191;39.566;2.654;2022-11-25T14:26:07;27.46;38.28
74661;SHT31;63191;39.566;2.654;2022-11-25T14:31:43;28.28;36.29
74661;SHT31;63191;39.566;2.654;2022-11-25T14:34:19;28.24;36.50
74661;SHT31;63191;39.566;2.654;2022-11-25T14:36:53;28.33;37.69
74661;SHT31;63191;39.566;2.654;2022-11-25T14:42:08;28.60;35.58
74661;SHT31;63191;39.566;2.654;2022-11-25T14:44:48;27.99;35.48
74661;SHT31;63191;39.566;2.654;2022-11-25T14:47:23;27.50;36.06
74661;SHT31;63191;39.566;2.654;2022-11-25T14:49:55;26.81;37.03
74661;SHT31;63191;39.566;2.654;2022-11-25T14:52:31;25.96;37.67
74661;SHT31;63191;39.566;2.654;2022-11-25T14:55:00;25.03;38.94
74661;SHT31;63191;39.566;2.654;2022-11-25T14:57:31;24.18;40.46
74661;SHT31;63191;39.566;2.654;2022-11-25T15:00:08;23.45;42.02
74661;SHT31;63191;39.566;2.654;2022-11-25T15:02:40;22.85;43.50
74661;SHT31;63191;39.566;2.654;2022-11-25T15:05:41;22.36;44.66
74661;SHT31;63191;39.566;2.654;2022-11-25T15:08:12;21.96;45.74
74661;SHT31;63191;39.566;2.654;2022-11-25T15:10:53;21.66;46.55
74661;SHT31;63191;39.566;2.654;2022-11-25T15:18:41;20.83;49.07
74661;SHT31;63191;39.566;2.654;2022-11-25T15:21:20;20.62;49.54
74661;SHT31;63191;39.566;2.654;2022-11-25T15:24:06;20.45;49.77
74661;SHT31;63191;39.566;2.654;2022-11-25T15:26:51;20.27;50.17
74661;SHT31;63191;39.566;2.654;2022-11-25T15:29:20;20.04;50.72
74661;SHT31;63191;39.566;2.654;2022-11-25T15:31:47;19.83;51.39
74661;SHT31;63191;39.566;2.654;2022-11-25T15:34:14;19.70;52.08
74661;SHT31;63191;39.566;2.654;2022-11-25T15:36:43;19.56;52.56
74661;SHT31;63191;39.566;2.654;2022-11-25T15:39:14;19.42;53.14
74661;SHT31;63191;39.566;2.654;2022-11-25T15:44:17;19.07;54.60
74661;SHT31;63191;39.566;2.654;2022-11-25T15:49:29;18.81;55.76
74661;SHT31;63191;39.566;2.654;2022-11-25T15:52:02;18.69;56.43
74661;SHT31;63191;39.566;2.654;2022-11-25T15:54:29;18.59;56.79
74661;SHT31;63191;39.566;2.654;2022-11-25T15:57:15;18.47;57.72
74661;SHT31;63191;39.566;2.654;2022-11-25T15:59:49;18.35;58.32
74661;SHT31;63191;39.566;2.654;2022-11-25T16:05:29;18.17;59.49
74661;SHT31;63191;39.566;2.654;2022-11-25T16:08:50;18.08;60.02
74661;SHT31;63191;39.566;2.654;2022-11-25T16:10:56;18.00;60.46
74661;SHT31;63191;39.566;2.654;2022-11-25T16:13:40;17.93;60.89
74661;SHT31;63191;39.566;2.654;2022-11-25T16:21:10;17.78;62.07
74661;SHT31;63191;39.566;2.654;2022-11-25T16:23:40;17.76;62.30
74661;SHT31;63191;39.566;2.654;2022-11-25T16:26:14;17.75;62.63
74661;SHT31;63191;39.566;2.654;2022-11-25T16:28:55;17.72;62.75
74661;SHT31;63191;39.566;2.654;2022-11-25T16:31:24;17.68;63.05
74661;SHT31;63191;39.566;2.654;2022-11-25T16:33:54;17.65;63.38
74661;SHT31;63191;39.566;2.654;2022-11-25T16:36:25;17.60;63.77
74661;SHT31;63191;39.566;2.654;2022-11-25T16:38:52;17.58;63.99
74661;SHT31;63191;39.566;2.654;2022-11-25T16:41:23;17.56;64.13
74661;SHT31;63191;39.566;2.654;2022-11-25T16:43:51;17.56;64.20
74661;SHT31;63191;39.566;2.654;2022-11-25T16:46:18;17.57;64.21
74661;SHT31;63191;39.566;2.654;2022-11-25T16:48:44;17.56;64.23
74661;SHT31;63191;39.566;2.654;2022-11-25T16:51:15;17.58;64.38
74661;SHT31;63191;39.566;2.654;2022-11-25T16:53:43;17.61;64.28
74661;SHT31;63191;39.566;2.654;2022-11-25T16:56:11;17.65;63.99
74661;SHT31;63191;39.566;2.654;2022-11-25T16:58:49;17.68;63.75
74661;SHT31;63191;39.566;2.654;2022-11-25T17:01:15;17.69;63.52
74661;SHT31;63191;39.566;2.654;2022-11-25T17:03:43;17.68;63.42
74661;SHT31;63191;39.566;2.654;2022-11-25T17:06:11;17.67;63.11
74661;SHT31;63191;39.566;2.654;2022-11-25T17:08:43;17.62;62.74
74661;SHT31;63191;39.566;2.654;2022-11-25T17:11:13;17.57;62.22
74661;SHT31;63191;39.566;2.654;2022-11-25T17:14:03;17.51;62.12
74661;SHT31;63191;39.566;2.654;2022-11-25T17:16:36;17.44;61.99
74661;SHT31;63191;39.566;2.654;2022-11-25T17:19:02;17.38;61.92
74661;SHT31;63191;39.566;2.654;2022-11-25T17:21:28;17.31;61.84
74661;SHT31;63191;39.566;2.654;2022-11-25T17:23:56;17.24;61.83
74661;SHT31;63191;39.566;2.654;2022-11-25T17:26:34;17.19;61.37
74661;SHT31;63191;39.566;2.654;2022-11-25T17:29:03;17.16;60.89
74661;SHT31;63191;39.566;2.654;2022-11-25T17:31:35;17.13;60.87
74661;SHT31;63191;39.566;2.654;2022-11-25T17:34:02;17.09;60.86
74661;SHT31;63191;39.566;2.654;2022-11-25T17:36:28;17.05;60.93
74661;SHT31;63191;39.566;2.654;2022-11-25T17:38:54;16.99;60.97
74661;SHT31;63191;39.566;2.654;2022-11-25T17:41:20;16.95;61.04
74661;SHT31;63191;39.566;2.654;2022-11-25T17:43:50;16.90;61.11
74661;SHT31;63191;39.566;2.654;2022-11-25T17:46:18;16.89;60.99
74661;SHT31;63191;39.566;2.654;2022-11-25T17:48:44;16.86;60.71
74661;SHT31;63191;39.566;2.654;2022-11-25T17:51:10;16.86;60.46
74661;SHT31;63191;39.566;2.654;2022-11-25T17:53:38;16.84;60.10
74661;SHT31;63191;39.566;2.654;2022-11-25T17:56:15;16.81;59.80
74661;SHT31;63191;39.566;2.654;2022-11-25T17:58:51;16.77;59.45
74661;SHT31;63191;39.566;2.654;2022-11-25T18:01:17;16.72;59.31
74661;SHT31;63191;39.566;2.654;2022-11-25T18:03:43;16.68;59.24
74661;SHT31;63191;39.566;2.654;2022-11-25T18:06:09;16.67;59.36
74661;SHT31;63191;39.566;2.654;2022-11-25T18:08:35;16.65;59.73
74661;SHT31;63191;39.566;2.654;2022-11-25T18:11:01;16.62;60.16
74661;SHT31;63191;39.566;2.654;2022-11-25T18:13:31;16.58;60.44
74661;SHT31;63191;39.566;2.654;2022-11-25T18:16:07;16.55;60.74
74661;SHT31;63191;39.566;2.654;2022-11-25T18:18:33;16.52;61.03
74661;SHT31;63191;39.566;2.654;2022-11-25T18:20:59;16.49;61.35
74661;SHT31;63191;39.566;2.654;2022-11-25T18:23:25;16.48;61.58
74661;SHT31;63191;39.566;2.654;2022-11-25T18:25:51;16.48;61.96
74661;SHT31;63191;39.566;2.654;2022-11-25T18:28:20;16.48;62.07
74661;SHT31;63191;39.566;2.654;2022-11-25T18:30:49;16.48;62.39
74661;SHT31;63191;39.566;2.654;2022-11-25T18:33:16;16.51;62.68
74661;SHT31;63191;39.566;2.654;2022-11-25T18:35:44;16.58;63.14
74661;SHT31;63191;39.566;2.654;2022-11-25T18:38:11;16.64;63.22
74661;SHT31;63191;39.566;2.654;2022-11-25T18:40:38;16.69;63.06
74661;SHT31;63191;39.566;2.654;2022-11-25T18:43:11;16.68;62.91
74661;SHT31;63191;39.566;2.654;2022-11-25T18:45:41;16.63;62.77